createdAt,value
2022-08-14T13:27:51.287Z,33.50
2022-08-14T13:30:24.563Z,33.50
2022-08-14T13:32:54.569Z,33.40
2022-08-14T13:35:26.452Z,33.50
2022-08-14T13:37:54.518Z,33.50
2022-08-14T13:40:26.537Z,33.50
2022-08-14T13:42:57.231Z,33.50
2022-08-14T13:45:33.895Z,33.60
2022-08-14T13:48:27.439Z,33.70
2022-08-14T13:51:01.625Z,33.70
2022-08-14T13:53:33.449Z,33.70
2022-08-14T13:56:01.594Z,33.70
2022-08-14T13:58:34.481Z,33.70
2022-08-14T14:01:04.494Z,33.70
2022-08-14T14:03:37.724Z,33.70
2022-08-14T14:06:06.109Z,33.70
2022-08-14T14:08:43.693Z,33.70
2022-08-14T14:11:16.483Z,33.70
2022-08-14T14:13:45.733Z,33.70
2022-08-14T14:16:15.443Z,33.80
2022-08-14T14:18:57.497Z,33.80
2022-08-14T14:21:28.769Z,33.80
2022-08-14T14:23:57.208Z,33.80
2022-08-14T14:26:25.180Z,33.80
2022-08-14T14:28:56.934Z,33.80
2022-08-14T14:31:30.287Z,33.80
2022-08-14T14:34:07.773Z,33.90
2022-08-14T14:36:52.383Z,33.90
2022-08-14T14:39:23.204Z,33.90
2022-08-14T14:41:56.243Z,33.90
2022-08-14T14:44:25.419Z,33.90
2022-08-14T14:46:55.036Z,33.90
2022-08-14T14:49:41.780Z,34.00
2022-08-14T14:52:26.502Z,34.00
2022-08-14T14:54:56.390Z,34.00
2022-08-14T14:57:28.991Z,34.00
2022-08-14T15:00:02.744Z,34.00
2022-08-14T15:02:36.695Z,34.00
2022-08-14T15:05:08.187Z,34.00
2022-08-14T15:07:36.309Z,34.00
2022-08-14T15:10:27.292Z,34.00
2022-08-14T15:12:58.024Z,33.90
2022-08-14T15:15:32.697Z,33.90
2022-08-14T15:18:01.594Z,33.90
2022-08-14T15:20:31.518Z,33.90
2022-08-14T15:23:00.977Z,33.90
2022-08-14T15:25:39.926Z,33.90
2022-08-14T15:28:11.675Z,33.90
2022-08-14T15:30:41.105Z,34.00
2022-08-14T15:33:09.696Z,34.10
2022-08-14T15:35:45.850Z,34.10
2022-08-14T15:38:17.872Z,34.10
2022-08-14T15:40:55.911Z,34.10
2022-08-14T15:43:25.491Z,34.10
2022-08-14T15:45:56.160Z,34.20
2022-08-14T15:48:24.204Z,34.20
2022-08-14T15:50:54.010Z,34.20
2022-08-14T15:53:23.396Z,34.20
2022-08-14T15:55:53.053Z,34.30
2022-08-14T15:58:21.243Z,34.30
2022-08-14T16:01:07.061Z,34.30
2022-08-14T16:03:39.833Z,34.30
2022-08-14T16:06:15.712Z,34.30
2022-08-14T16:08:46.427Z,34.20
2022-08-14T16:11:18.378Z,34.10
2022-08-14T16:13:47.732Z,34.10
2022-08-14T16:16:47.187Z,34.10
2022-08-14T16:19:09.838Z,34.00
2022-08-14T16:22:02.708Z,34.00
2022-08-14T16:24:31.119Z,34.10
2022-08-14T16:27:01.030Z,34.10
2022-08-14T16:29:29.938Z,34.10
2022-08-14T16:31:58.916Z,34.10
2022-08-14T16:34:44.027Z,34.10
2022-08-14T16:37:18.373Z,34.20
2022-08-14T16:39:47.248Z,34.20
2022-08-14T16:43:02.356Z,34.20
2022-08-14T16:45:05.429Z,34.20
2022-08-14T16:47:36.307Z,34.20
2022-08-14T16:50:08.941Z,34.20
2022-08-14T16:52:44.196Z,34.20
2022-08-14T16:55:14.270Z,34.10
2022-08-14T16:57:49.906Z,34.10
2022-08-14T17:00:29.093Z,34.00
2022-08-14T17:03:01.374Z,33.90
2022-08-14T17:05:29.349Z,33.90
2022-08-14T17:08:32.996Z,33.80
2022-08-14T17:11:04.678Z,33.70
2022-08-14T17:13:59.591Z,33.80
2022-08-14T17:16:26.491Z,33.70
2022-08-14T17:19:00.806Z,33.70
2022-08-14T17:21:31.535Z,33.70
2022-08-14T17:26:55.149Z,33.70
2022-08-14T17:29:29.531Z,33.60
2022-08-14T17:32:02.267Z,33.60
2022-08-14T17:34:45.657Z,33.60
2022-08-14T17:37:24.744Z,33.60
2022-08-14T17:40:03.328Z,33.60
2022-08-14T17:42:55.618Z,33.60
2022-08-14T17:45:43.440Z,33.60
2022-08-14T17:49:10.043Z,33.50
2022-08-14T17:51:14.858Z,33.50
2022-08-14T17:53:53.315Z,33.50
2022-08-14T17:56:31.453Z,33.60
2022-08-14T17:59:02.108Z,33.60
2022-08-14T18:01:32.195Z,33.50
2022-08-14T18:04:05.617Z,33.50
2022-08-14T18:06:58.483Z,33.50
2022-08-14T18:09:35.161Z,33.50
2022-08-14T18:12:06.385Z,33.40
2022-08-14T18:14:48.807Z,33.40
2022-08-14T18:17:23.083Z,33.40
2022-08-14T18:19:52.514Z,33.40
2022-08-14T18:22:32.284Z,33.40
2022-08-14T18:25:19.163Z,33.30
2022-08-14T18:27:51.768Z,33.30
2022-08-14T18:30:33.137Z,33.30
2022-08-14T18:33:17.920Z,33.30
2022-08-14T18:35:59.837Z,33.20
2022-08-14T18:38:45.640Z,33.20
2022-08-14T18:41:37.204Z,33.20
2022-08-14T18:44:11.167Z,33.10
2022-08-14T18:47:17.934Z,33.10
2022-08-14T18:50:27.536Z,33.10
2022-08-14T18:53:05.756Z,33.00
2022-08-14T18:55:53.047Z,33.00
2022-08-14T18:58:28.259Z,32.90
2022-08-14T19:01:04.458Z,32.90
2022-08-14T19:03:58.116Z,32.90
2022-08-14T19:06:55.745Z,32.80
2022-08-14T19:09:51.449Z,32.70
2022-08-14T19:12:57.656Z,32.70
2022-08-14T19:15:27.927Z,32.70
2022-08-14T19:18:10.853Z,32.70
2022-08-14T19:20:49.030Z,32.70
2022-08-14T19:23:21.961Z,32.70
2022-08-14T19:25:57.984Z,32.70
2022-08-14T19:28:32.052Z,32.60
2022-08-14T19:31:41.925Z,32.70
2022-08-14T19:34:29.671Z,32.60
2022-08-14T19:37:09.894Z,32.70
2022-08-14T19:39:49.176Z,32.60
2022-08-14T19:42:27.792Z,32.50
2022-08-14T19:44:56.868Z,32.50
2022-08-14T19:47:38.788Z,32.50
2022-08-14T19:50:38.699Z,32.40
2022-08-14T19:53:02.508Z,32.40
2022-08-14T19:55:34.358Z,32.40
2022-08-14T19:58:02.697Z,32.40
2022-08-14T20:00:31.556Z,32.30
2022-08-14T20:03:11.156Z,32.30
2022-08-14T20:05:45.617Z,32.30
2022-08-14T20:10:59.134Z,32.30
2022-08-14T20:11:16.021Z,32.30
2022-08-14T20:13:57.863Z,32.20
2022-08-14T20:16:32.102Z,32.20
2022-08-14T20:19:10.004Z,32.30
2022-08-14T20:22:00.725Z,32.20
2022-08-14T20:24:30.958Z,32.10
2022-08-14T20:27:20.974Z,32.20
2022-08-14T20:30:29.203Z,32.10
2022-08-14T20:32:53.594Z,32.10
2022-08-14T20:35:26.338Z,32.10
2022-08-14T20:38:30.454Z,32.10
2022-08-14T20:40:54.721Z,32.00
2022-08-14T20:43:42.088Z,32.00
2022-08-14T20:46:13.453Z,32.00
2022-08-14T20:48:50.943Z,31.90
2022-08-14T20:51:24.177Z,31.90
2022-08-14T20:54:01.738Z,31.90
2022-08-14T20:56:33.119Z,31.80
2022-08-14T20:59:15.425Z,31.80
2022-08-14T21:01:44.994Z,31.80
2022-08-14T21:04:27.760Z,31.80
2022-08-14T21:07:24.876Z,31.80
2022-08-14T21:10:05.713Z,31.80
2022-08-14T21:12:35.841Z,31.70
2022-08-14T21:15:11.194Z,31.70
2022-08-14T21:17:41.509Z,31.70
2022-08-14T21:20:21.336Z,31.70
2022-08-14T21:22:56.496Z,31.70
2022-08-14T21:25:29.053Z,31.70
2022-08-14T21:28:00.796Z,31.70
2022-08-14T21:30:46.485Z,31.70
2022-08-14T21:33:20.563Z,31.70
2022-08-14T21:35:55.092Z,31.60
2022-08-14T21:38:33.511Z,31.60
2022-08-14T21:41:02.824Z,31.60
2022-08-14T21:43:54.559Z,31.60
2022-08-14T21:46:22.513Z,31.70
2022-08-14T21:48:53.746Z,31.60
2022-08-14T21:51:55.405Z,31.60
2022-08-14T21:54:31.834Z,31.70
2022-08-14T21:56:58.614Z,31.70
2022-08-14T21:59:29.759Z,31.70
2022-08-14T22:02:01.440Z,31.70
2022-08-14T22:04:34.750Z,31.70
2022-08-14T22:07:09.391Z,31.70
2022-08-14T22:09:37.471Z,31.70
2022-08-14T22:12:11.485Z,31.70
2022-08-14T22:14:59.823Z,31.70
2022-08-14T22:17:32.464Z,31.70
2022-08-14T22:20:05.010Z,31.70
2022-08-14T22:22:33.225Z,31.70
2022-08-14T22:25:01.348Z,31.70
2022-08-14T22:27:31.276Z,31.60
2022-08-14T22:30:01.004Z,31.60
2022-08-14T22:32:55.981Z,31.60
2022-08-14T22:35:18.360Z,31.60
2022-08-14T22:37:46.420Z,31.50
2022-08-14T22:40:58.904Z,31.40
2022-08-14T22:43:24.201Z,31.50
2022-08-14T22:45:55.693Z,31.40
2022-08-14T22:48:24.185Z,31.40
2022-08-14T22:50:53.896Z,31.30
2022-08-14T22:53:22.042Z,31.30
2022-08-14T22:55:52.323Z,31.20
2022-08-14T22:58:30.211Z,31.20
2022-08-14T23:01:01.224Z,31.20
2022-08-14T23:03:34.204Z,31.20
2022-08-14T23:07:02.156Z,31.10
2022-08-14T23:08:59.798Z,31.10
2022-08-14T23:11:30.277Z,31.00
2022-08-14T23:14:00.920Z,31.00
2022-08-14T23:16:31.289Z,31.00
2022-08-14T23:18:59.238Z,31.00
2022-08-14T23:21:28.933Z,31.00
2022-08-14T23:23:57.342Z,30.90
2022-08-14T23:26:49.539Z,31.00
2022-08-14T23:29:13.515Z,30.90
2022-08-14T23:31:43.890Z,30.90
2022-08-14T23:34:20.843Z,31.00
2022-08-14T23:36:54.327Z,31.00
2022-08-14T23:39:24.379Z,31.10
2022-08-14T23:41:53.720Z,31.20
2022-08-14T23:44:22.476Z,31.20
2022-08-14T23:46:56.544Z,31.20
2022-08-14T23:49:25.363Z,31.20
2022-08-14T23:52:49.717Z,31.20
2022-08-14T23:54:49.381Z,31.20
2022-08-14T23:57:19.181Z,31.20
2022-08-14T23:59:54.439Z,31.20
